Nearby METAR Reports

 

EGNM - Leeds And Bradford, United Kingdom
Distance from station: N 11mi, 18km
Updated: 22/08/2019 17:20
Partly cloudy
Partly cloudy
 Wind from SW
Wind: SW 12 mph , 19 km/h
Temperature: 18°C
Dew Point: 15°C
Humidity: 83%
Barometer: 1019 hPa
Clouds: Partly cloudy
Visibility: 6 miles , 10 km
Cloud details: Partly cloudy 914 m
Partly cloudy 1036 m
2019/08/22 17:20 EGNM 221720Z 23010KT 9999 SCT030 SCT034 18/15 Q1019
EGXU - Linton-On-Ouse, United Kingdom
Distance from station: NNE 28mi, 45km
Updated: 22/08/2019 16:50
Mostly cloudy
Mostly cloudy
 Wind from WSW
Wind: WSW 13 mph , 20 km/h
Temperature: 20°C
Dew Point: 16°C
Humidity: 78%
Barometer: 1018 hPa
Clouds: Mostly cloudy
Visibility: 6 miles , 10 km
Cloud details: Mostly cloudy 1189 m
2019/08/22 16:50 EGXU 221650Z AUTO 25011KT 9999 // BKN039/// 20/16 Q1018
 
EGCN - Doncaster Sheffield, United Kingdom
Distance from station: ESE 30mi, 45km
Updated: 22/08/2019 17:20
Few Clouds
Few Clouds
 Wind from SW
Wind: SW 15 mph , 24 km/h
Temperature: 21°C
Dew Point: 16°C
Humidity: 73%
Barometer: 1021 hPa
Clouds: Few Clouds
Visibility: 6 miles , 10 km
Cloud details: Few Clouds 1128 m
2019/08/22 17:20 EGCN 221720Z 22013KT 9999 FEW037 21/16 Q1021
EGXZ - Topcliffe RAF, United Kingdom
Distance from station: NNE 36mi, 57km
Updated: 22/08/2019 16:50
Partly cloudy
Partly cloudy
 Wind from SW
Wind: SW 18 mph , 30 km/h
Temperature: 19°C
Dew Point: 15°C
Humidity: 78%
Barometer: 1018 hPa
Clouds: Partly cloudy
Visibility: 6 miles , 10 km
Cloud details: Partly cloudy 732 m
2019/08/22 16:50 EGXZ 221650Z AUTO 22016KT 9999 SCT024/// 19/15 Q1018
 
EGCC - Manchester Intl, United Kingdom
Distance from station: SW 36mi, 58km
Updated: 22/08/2019 17:20
Overcast
Overcast
 Wind from SSW
Wind: SSW 9 mph , 15 km/h
Temperature: 19°C
Dew Point: 14°C
Humidity: 73%
Barometer: 1021 hPa
Clouds: Overcast
Visibility: 6 miles , 10 km
Cloud details: Mostly cloudy 671 m
Overcast 1158 m
2019/08/22 17:20 EGCC 221720Z AUTO 21008KT 9999 BKN022 OVC038 19/14 Q1021 NOSIG
EGXE - Leeming RAF, United Kingdom
Distance from station: N 40mi, 65km
Updated: 22/08/2019 16:50
Mostly cloudy
Mostly cloudy
 Wind from SW
Wind: SW 20 mph , 31 km/h
Temperature: 19°C
Dew Point: 14°C
Humidity: 73%
Barometer: 1018 hPa
Clouds: Mostly cloudy
Visibility: 6 miles , 10 km
Cloud details: Few Clouds 914 m
Partly cloudy 1158 m
Mostly cloudy 7620 m
2019/08/22 16:50 EGXE 221650Z 23017KT 9999 FEW030 SCT038 BKN250 19/14 Q1018 NOSIG RMK BLU BLU